createdAt,value
2023-02-17T00:01:42.664Z,1.26
2023-02-17T00:04:13.719Z,1.28
2023-02-17T00:06:42.436Z,1.29
2023-02-17T00:09:11.612Z,1.27
2023-02-17T00:11:41.725Z,1.25
2023-02-17T00:14:12.771Z,1.27
2023-02-17T00:16:41.253Z,1.27
2023-02-17T00:19:12.559Z,1.28
2023-02-17T00:21:41.014Z,1.29
2023-02-17T00:24:10.105Z,1.29
2023-02-17T00:26:40.424Z,1.31
2023-02-17T00:29:09.284Z,1.32
2023-02-17T00:31:38.359Z,1.34
2023-02-17T00:34:07.168Z,1.37
2023-02-17T00:36:36.839Z,1.37
2023-02-17T00:39:06.116Z,1.36
2023-02-17T00:41:35.709Z,1.36
2023-02-17T00:44:04.920Z,1.35
2023-02-17T00:46:34.381Z,1.34
2023-02-17T00:49:03.881Z,1.35
2023-02-17T00:51:33.086Z,1.36
2023-02-17T00:54:03.038Z,1.37
2023-02-17T00:56:31.483Z,1.36
2023-02-17T00:59:00.504Z,1.37
2023-02-17T01:01:32.201Z,1.39
2023-02-17T01:04:00.226Z,1.41
2023-02-17T01:06:32.806Z,1.41
2023-02-17T01:09:02.006Z,1.43
2023-02-17T01:11:33.231Z,1.45
2023-02-17T01:14:02.554Z,1.45
2023-02-17T01:16:37.470Z,1.45
2023-02-17T01:19:12.124Z,1.45
2023-02-17T01:21:40.861Z,1.45
2023-02-17T01:24:11.878Z,1.45
2023-02-17T01:26:40.305Z,1.48
2023-02-17T01:29:10.546Z,1.50
2023-02-17T01:31:39.908Z,1.50
2023-02-17T01:34:10.780Z,1.50
2023-02-17T01:36:39.277Z,1.50
2023-02-17T01:39:07.890Z,1.52
2023-02-17T01:41:36.678Z,1.54
2023-02-17T01:44:18.720Z,1.55
2023-02-17T01:46:49.674Z,1.56
2023-02-17T01:49:39.827Z,1.56
2023-02-17T01:52:20.481Z,1.58
2023-02-17T01:55:06.012Z,1.60
2023-02-17T01:57:37.419Z,1.60
2023-02-17T02:00:09.236Z,1.59
2023-02-17T02:02:47.661Z,1.58
2023-02-17T02:05:17.831Z,1.61
2023-02-17T02:07:46.862Z,1.59
2023-02-17T02:10:15.775Z,1.58
2023-02-17T02:12:44.465Z,1.59
2023-02-17T02:15:21.635Z,1.57
2023-02-17T02:18:18.342Z,1.56
2023-02-17T02:21:20.004Z,1.58
2023-02-17T02:24:05.997Z,1.61
2023-02-17T02:26:59.965Z,1.63
2023-02-17T02:29:50.463Z,1.64
2023-02-17T02:32:50.010Z,1.66
2023-02-17T02:35:30.485Z,1.64
2023-02-17T02:38:14.059Z,1.67
2023-02-17T02:40:50.653Z,1.70
2023-02-17T02:43:20.250Z,1.74
2023-02-17T02:45:49.828Z,1.77
2023-02-17T02:48:18.902Z,1.79
2023-02-17T02:50:59.268Z,1.80
2023-02-17T02:53:51.741Z,1.81
2023-02-17T02:56:51.692Z,1.84
2023-02-17T02:59:53.187Z,1.85
2023-02-17T03:02:33.077Z,1.91
2023-02-17T03:05:28.884Z,1.99
2023-02-17T03:08:15.359Z,2.04
2023-02-17T03:10:50.166Z,2.09
2023-02-17T03:13:20.607Z,2.14
2023-02-17T03:15:49.569Z,2.19
2023-02-17T03:18:18.018Z,2.22
2023-02-17T03:20:54.868Z,2.25
2023-02-17T03:23:24.109Z,2.22
2023-02-17T03:25:53.331Z,2.26
2023-02-17T03:28:22.012Z,2.28
2023-02-17T03:30:50.775Z,2.28
2023-02-17T03:33:20.024Z,2.32
2023-02-17T03:35:48.665Z,2.34
2023-02-17T03:38:17.363Z,2.38
2023-02-17T03:40:46.583Z,2.40
2023-02-17T03:43:17.893Z,2.41
2023-02-17T03:45:46.760Z,2.42
2023-02-17T03:48:17.692Z,2.42
2023-02-17T03:50:46.529Z,2.43
2023-02-17T03:53:15.105Z,2.41
2023-02-17T03:55:44.129Z,2.42
2023-02-17T03:58:12.740Z,2.43
2023-02-17T04:00:41.436Z,2.43
2023-02-17T04:03:11.716Z,2.42
2023-02-17T04:05:40.685Z,2.41
2023-02-17T04:08:09.478Z,2.42
2023-02-17T04:10:39.082Z,2.43
2023-02-17T04:13:07.658Z,2.42
2023-02-17T04:15:37.900Z,2.41
2023-02-17T04:18:06.696Z,2.41
2023-02-17T04:20:35.980Z,2.42
2023-02-17T04:23:04.939Z,2.43
2023-02-17T04:25:36.872Z,2.44
2023-02-17T04:28:06.533Z,2.41
2023-02-17T04:30:35.927Z,2.39
2023-02-17T04:33:06.066Z,2.37
2023-02-17T04:35:34.894Z,2.39
2023-02-17T04:38:04.829Z,2.40
2023-02-17T04:40:33.831Z,2.41
2023-02-17T04:43:03.139Z,2.39
2023-02-17T04:45:31.845Z,2.38
2023-02-17T04:48:00.780Z,2.38
2023-02-17T04:50:31.096Z,2.36
2023-02-17T04:52:59.641Z,2.34
2023-02-17T04:55:29.464Z,2.35
2023-02-17T04:57:57.874Z,2.37
2023-02-17T05:00:26.576Z,2.38
2023-02-17T05:02:55.894Z,2.36
2023-02-17T05:05:24.558Z,2.36
2023-02-17T05:07:53.405Z,2.35
2023-02-17T05:10:24.970Z,2.33
2023-02-17T05:12:54.136Z,2.34
2023-02-17T05:15:25.935Z,2.31
2023-02-17T05:17:54.850Z,2.31
2023-02-17T05:20:24.976Z,2.33
2023-02-17T05:22:53.686Z,2.34
2023-02-17T05:25:22.373Z,2.36
2023-02-17T05:27:51.211Z,2.37
2023-02-17T05:30:20.926Z,2.37
2023-02-17T05:32:51.098Z,2.37
2023-02-17T05:35:21.926Z,2.37
2023-02-17T05:37:53.724Z,2.39
2023-02-17T05:40:22.430Z,2.38
2023-02-17T05:42:52.735Z,2.37
2023-02-17T05:45:21.935Z,2.39
2023-02-17T05:47:50.712Z,2.40
2023-02-17T05:50:19.545Z,2.43
2023-02-17T05:52:50.011Z,2.43
2023-02-17T05:55:19.560Z,2.45
2023-02-17T05:57:49.967Z,2.49
2023-02-17T06:00:21.153Z,2.50
2023-02-17T06:02:49.973Z,2.52
2023-02-17T06:05:18.725Z,2.54
2023-02-17T06:07:47.695Z,2.57
2023-02-17T06:10:19.007Z,2.59
2023-02-17T06:12:50.390Z,2.62
2023-02-17T06:15:19.317Z,2.64
2023-02-17T06:17:49.046Z,2.65
2023-02-17T06:20:18.207Z,2.61
2023-02-17T06:22:46.982Z,2.59
2023-02-17T06:25:16.219Z,2.61
2023-02-17T06:27:45.086Z,2.63
2023-02-17T06:30:17.148Z,2.65
2023-02-17T06:32:45.926Z,2.64
2023-02-17T06:35:17.031Z,2.64
2023-02-17T06:37:45.627Z,2.59
2023-02-17T06:40:16.550Z,2.55
2023-02-17T06:42:46.698Z,2.53
2023-02-17T06:45:16.467Z,2.50
2023-02-17T06:47:46.496Z,2.48
2023-02-17T06:50:16.381Z,2.47
2023-02-17T06:52:46.697Z,2.49
2023-02-17T06:55:15.488Z,2.46
2023-02-17T06:57:45.611Z,2.43
2023-02-17T07:00:16.462Z,2.37
2023-02-17T07:02:45.771Z,2.35
2023-02-17T07:05:14.818Z,2.36
2023-02-17T07:07:45.162Z,2.38
2023-02-17T07:10:15.097Z,2.37
2023-02-17T07:12:46.488Z,2.37
2023-02-17T07:15:17.177Z,2.36
2023-02-17T07:17:45.949Z,2.35
2023-02-17T07:20:14.902Z,2.36
2023-02-17T07:22:44.522Z,2.36
2023-02-17T07:25:13.465Z,2.34
2023-02-17T07:27:43.756Z,2.32
2023-02-17T07:30:12.932Z,2.33
2023-02-17T07:32:41.447Z,2.32
2023-02-17T07:35:10.433Z,2.33
2023-02-17T07:37:39.309Z,2.31
2023-02-17T07:40:08.669Z,2.31
2023-02-17T07:42:38.980Z,2.28
2023-02-17T07:45:08.665Z,2.27
2023-02-17T07:47:38.827Z,2.31
2023-02-17T07:50:08.552Z,2.36
2023-02-17T07:52:38.572Z,2.38
2023-02-17T07:55:08.328Z,2.38
2023-02-17T07:57:37.204Z,2.38
2023-02-17T08:00:10.554Z,2.36
2023-02-17T08:02:43.354Z,2.33
2023-02-17T08:05:14.411Z,2.32
2023-02-17T08:07:44.143Z,2.31
2023-02-17T08:10:34.714Z,2.32
2023-02-17T08:13:20.608Z,2.34
2023-02-17T08:15:51.310Z,2.35
2023-02-17T08:18:19.766Z,2.33
2023-02-17T08:20:50.548Z,2.34
2023-02-17T08:23:21.681Z,2.36
2023-02-17T08:25:50.222Z,2.35
2023-02-17T08:28:21.240Z,2.35
2023-02-17T08:30:49.925Z,2.34
2023-02-17T08:33:18.838Z,2.32
2023-02-17T08:35:47.790Z,2.31
2023-02-17T08:38:17.523Z,2.29
2023-02-17T08:40:47.117Z,2.27
2023-02-17T08:43:17.059Z,2.29
2023-02-17T08:45:46.164Z,2.34
2023-02-17T08:48:14.959Z,2.37
2023-02-17T08:50:49.427Z,2.43
2023-02-17T08:53:18.909Z,2.45
2023-02-17T08:55:49.785Z,2.50
2023-02-17T08:58:19.309Z,2.52
2023-02-17T09:00:51.439Z,2.48
2023-02-17T09:03:20.463Z,2.47
2023-02-17T09:05:57.515Z,2.52
2023-02-17T09:08:26.493Z,2.53
2023-02-17T09:10:56.758Z,2.54
2023-02-17T09:13:26.634Z,2.56
2023-02-17T09:15:55.502Z,2.61
2023-02-17T09:18:25.867Z,2.61
2023-02-17T09:20:54.503Z,2.58
2023-02-17T09:23:23.596Z,2.57
2023-02-17T09:26:05.353Z,2.55
2023-02-17T09:28:36.051Z,2.50
2023-02-17T09:31:17.254Z,2.51
2023-02-17T09:33:47.631Z,2.52
2023-02-17T09:36:22.490Z,2.54
2023-02-17T09:38:51.518Z,2.57
2023-02-17T09:41:40.091Z,2.58
2023-02-17T09:44:28.985Z,2.58
2023-02-17T09:47:03.138Z,2.58
2023-02-17T09:49:46.566Z,2.56
2023-02-17T09:52:33.398Z,2.59
2023-02-17T09:55:19.786Z,2.64
2023-02-17T09:57:55.040Z,2.66
2023-02-17T10:00:49.052Z,2.67
2023-02-17T10:03:30.374Z,2.68
2023-02-17T10:06:13.987Z,2.76
2023-02-17T10:09:03.101Z,2.77
2023-02-17T10:11:57.560Z,2.80
2023-02-17T10:15:03.956Z,2.83
2023-02-17T10:17:48.057Z,2.85
2023-02-17T10:20:36.440Z,2.88
2023-02-17T10:23:16.798Z,2.88
2023-02-17T10:26:16.549Z,2.91
2023-02-17T10:28:56.006Z,2.91
2023-02-17T10:31:33.141Z,2.91
2023-02-17T10:34:08.019Z,2.90
2023-02-17T10:36:47.290Z,2.90
2023-02-17T10:39:45.667Z,2.88
2023-02-17T10:42:33.396Z,2.87
2023-02-17T10:45:34.921Z,2.92
2023-02-17T10:48:25.855Z,2.94
2023-02-17T10:50:54.663Z,2.94
2023-02-17T10:53:25.406Z,2.95
2023-02-17T10:56:07.328Z,2.96
2023-02-17T10:59:06.145Z,2.93
2023-02-17T11:01:36.411Z,2.94
2023-02-17T11:04:08.128Z,2.97
2023-02-17T11:06:42.574Z,2.97
2023-02-17T11:09:31.071Z,2.96
2023-02-17T11:12:04.805Z,2.93
2023-02-17T11:14:35.865Z,2.95
2023-02-17T11:17:30.223Z,2.99
2023-02-17T11:20:04.466Z,3.00
2023-02-17T11:22:40.655Z,3.00
2023-02-17T11:25:29.330Z,3.00
2023-02-17T11:28:04.598Z,3.02
2023-02-17T11:30:34.738Z,3.05
2023-02-17T11:33:19.128Z,3.04
2023-02-17T11:35:52.924Z,3.03
2023-02-17T11:38:28.866Z,3.03
2023-02-17T11:41:04.195Z,3.07
2023-02-17T11:43:34.612Z,3.08
2023-02-17T11:46:34.275Z,3.13
2023-02-17T11:49:21.114Z,3.16
2023-02-17T11:52:24.787Z,3.18
2023-02-17T11:55:22.887Z,3.17
2023-02-17T11:58:41.094Z,3.16
2023-02-17T12:01:40.149Z,3.18
2023-02-17T12:04:34.524Z,3.20
2023-02-17T12:07:35.164Z,3.18
2023-02-17T12:10:41.166Z,3.21
2023-02-17T12:13:35.515Z,3.23
2023-02-17T12:16:35.557Z,3.20
2023-02-17T12:19:34.889Z,3.20
2023-02-17T12:22:42.278Z,3.20
2023-02-17T12:25:26.814Z,3.22
2023-02-17T12:28:07.123Z,3.23
2023-02-17T12:31:02.542Z,3.22
2023-02-17T12:33:45.776Z,3.18
2023-02-17T12:36:18.359Z,3.19
2023-02-17T12:39:01.003Z,3.15
2023-02-17T12:41:38.495Z,3.14
2023-02-17T12:44:20.965Z,3.13
2023-02-17T12:46:58.435Z,3.14
2023-02-17T12:50:05.658Z,3.13
2023-02-17T12:52:40.672Z,3.12
2023-02-17T12:55:14.315Z,3.10
2023-02-17T12:57:51.609Z,3.11
2023-02-17T13:00:45.884Z,3.13
2023-02-17T13:03:15.288Z,3.13
2023-02-17T13:06:02.304Z,3.10
2023-02-17T13:08:55.371Z,3.09
2023-02-17T13:11:30.637Z,3.09
2023-02-17T13:14:31.481Z,3.06
2023-02-17T13:17:00.493Z,3.05
2023-02-17T13:19:34.786Z,3.06
2023-02-17T13:22:05.117Z,3.04
2023-02-17T13:24:39.655Z,2.99
2023-02-17T13:27:37.609Z,2.96
2023-02-17T13:30:18.781Z,2.92
2023-02-17T13:32:47.548Z,2.92
2023-02-17T13:35:31.469Z,2.89
2023-02-17T13:38:02.131Z,2.88
2023-02-17T13:40:36.019Z,2.84
2023-02-17T13:43:12.353Z,2.83
2023-02-17T13:45:50.222Z,2.82
2023-02-17T13:48:34.867Z,2.84
2023-02-17T13:51:07.655Z,2.85
2023-02-17T13:53:42.347Z,2.84
2023-02-17T13:56:24.284Z,2.85
2023-02-17T13:58:52.915Z,2.83
2023-02-17T14:01:27.079Z,2.83
2023-02-17T14:03:57.376Z,2.82
2023-02-17T14:06:40.142Z,2.82
2023-02-17T14:09:31.942Z,2.85
2023-02-17T14:12:03.051Z,2.86
2023-02-17T14:14:37.781Z,2.84
2023-02-17T14:17:15.235Z,2.78
2023-02-17T14:19:48.698Z,2.71
2023-02-17T14:22:34.090Z,2.69
2023-02-17T14:25:09.767Z,2.69
2023-02-17T14:27:47.439Z,2.68
2023-02-17T14:30:37.301Z,2.65
2023-02-17T14:33:24.015Z,2.61
2023-02-17T14:36:00.410Z,2.58
2023-02-17T14:38:37.058Z,2.59
2023-02-17T14:41:06.258Z,2.58
2023-02-17T14:43:35.447Z,2.57
2023-02-17T14:46:05.204Z,2.57
2023-02-17T14:48:34.687Z,2.53
2023-02-17T14:51:10.641Z,2.51
2023-02-17T14:53:40.383Z,2.49
2023-02-17T14:56:28.520Z,2.47
2023-02-17T14:58:57.586Z,2.46
2023-02-17T15:01:26.206Z,2.43
2023-02-17T15:03:56.427Z,2.46
2023-02-17T15:06:43.435Z,2.44
2023-02-17T15:09:15.864Z,2.41
2023-02-17T15:11:48.794Z,2.36
2023-02-17T15:14:19.831Z,2.34
2023-02-17T15:16:48.382Z,2.30
2023-02-17T15:19:18.373Z,2.27
2023-02-17T15:21:50.769Z,2.27
2023-02-17T15:24:25.204Z,2.30
2023-02-17T15:26:55.198Z,2.30
2023-02-17T15:29:27.032Z,2.31
2023-02-17T15:32:00.940Z,2.34
2023-02-17T15:34:33.067Z,2.34
2023-02-17T15:37:01.780Z,2.31
2023-02-17T15:39:30.863Z,2.26
2023-02-17T15:42:02.847Z,2.21
2023-02-17T15:44:46.990Z,2.16
2023-02-17T15:47:18.672Z,2.12
2023-02-17T15:49:47.063Z,2.11
2023-02-17T15:52:15.845Z,2.09
2023-02-17T15:54:44.952Z,2.07
2023-02-17T15:57:22.535Z,2.09
2023-02-17T15:59:53.181Z,2.08
2023-02-17T16:02:24.729Z,2.01
2023-02-17T16:04:55.035Z,1.97
2023-02-17T16:07:23.721Z,1.90
2023-02-17T16:09:53.261Z,1.87
2023-02-17T16:12:23.459Z,1.82
2023-02-17T16:14:52.162Z,1.79
2023-02-17T16:17:23.787Z,1.76
2023-02-17T16:19:52.617Z,1.72
2023-02-17T16:22:21.382Z,1.66
2023-02-17T16:24:51.524Z,1.62
2023-02-17T16:27:23.654Z,1.57
2023-02-17T16:29:52.612Z,1.55
2023-02-17T16:32:21.207Z,1.53
2023-02-17T16:34:50.486Z,1.53
2023-02-17T16:37:19.437Z,1.50
2023-02-17T16:39:48.263Z,1.52
2023-02-17T16:42:17.099Z,1.50
2023-02-17T16:44:47.490Z,1.46
2023-02-17T16:47:22.054Z,1.46
2023-02-17T16:49:51.668Z,1.45
2023-02-17T16:52:26.390Z,1.43
2023-02-17T16:54:56.717Z,1.45
2023-02-17T16:57:26.012Z,1.50
2023-02-17T16:59:58.542Z,1.45
2023-02-17T17:02:28.251Z,1.42
2023-02-17T17:04:58.680Z,1.36
2023-02-17T17:07:27.911Z,1.35
2023-02-17T17:10:15.403Z,1.34
2023-02-17T17:12:27.168Z,1.31
2023-02-17T17:14:57.064Z,1.30
2023-02-17T17:17:25.530Z,1.27
2023-02-17T17:19:54.416Z,1.26
2023-02-17T17:22:23.403Z,1.27
2023-02-17T17:24:52.075Z,1.26
2023-02-17T17:27:20.884Z,1.24
2023-02-17T17:29:50.301Z,1.22
2023-02-17T17:32:19.194Z,1.22
2023-02-17T17:34:50.820Z,1.21
2023-02-17T17:37:20.273Z,1.19
2023-02-17T17:39:50.103Z,1.16
2023-02-17T17:42:18.995Z,1.16
2023-02-17T17:44:49.199Z,1.15
2023-02-17T17:47:29.516Z,1.18
2023-02-17T17:49:52.444Z,1.16
2023-02-17T17:52:21.027Z,1.13
2023-02-17T17:54:50.830Z,1.13
2023-02-17T17:57:19.509Z,1.14
2023-02-17T17:59:48.178Z,1.16
2023-02-17T18:02:16.839Z,1.14
2023-02-17T18:04:45.592Z,1.13
2023-02-17T18:07:14.197Z,1.08
2023-02-17T18:09:43.766Z,1.07
2023-02-17T18:12:16.019Z,1.08
2023-02-17T18:14:47.202Z,1.07
2023-02-17T18:17:18.320Z,1.08
2023-02-17T18:19:48.552Z,1.06
2023-02-17T18:22:17.304Z,1.02
2023-02-17T18:24:47.501Z,1.02
2023-02-17T18:27:16.109Z,1.03
2023-02-17T18:29:44.797Z,1.04
2023-02-17T18:32:14.930Z,1.02
2023-02-17T18:34:45.454Z,1.00
2023-02-17T18:37:13.977Z,0.99
2023-02-17T18:39:42.977Z,0.97
2023-02-17T18:42:12.508Z,0.96
2023-02-17T18:44:41.296Z,0.98
2023-02-17T18:47:09.978Z,0.96
2023-02-17T18:49:40.772Z,0.97
2023-02-17T18:52:10.424Z,0.97
2023-02-17T18:54:44.394Z,0.95
2023-02-17T18:57:15.332Z,0.93
2023-02-17T18:59:44.855Z,0.92
2023-02-17T19:02:13.744Z,0.93
2023-02-17T19:04:42.750Z,0.95
2023-02-17T19:07:11.514Z,0.92
2023-02-17T19:09:44.881Z,0.90
2023-02-17T19:12:14.979Z,0.88
2023-02-17T19:14:43.653Z,0.88
2023-02-17T19:17:12.479Z,0.89
2023-02-17T19:19:41.404Z,0.89
2023-02-17T19:22:10.925Z,0.89
2023-02-17T19:24:40.256Z,0.89
2023-02-17T19:27:08.794Z,0.91
2023-02-17T19:29:38.538Z,0.91
2023-02-17T19:32:08.666Z,0.91
2023-02-17T19:34:38.848Z,0.92
2023-02-17T19:37:07.314Z,0.93
2023-02-17T19:39:36.573Z,0.95
2023-02-17T19:42:05.248Z,0.96
2023-02-17T19:44:36.612Z,0.93
2023-02-17T19:47:05.228Z,0.93
2023-02-17T19:49:34.642Z,0.93
2023-02-17T19:52:03.462Z,0.90
2023-02-17T19:54:32.630Z,0.89
2023-02-17T19:57:01.078Z,0.88
2023-02-17T19:59:33.462Z,0.88
2023-02-17T20:02:02.210Z,0.89
2023-02-17T20:04:30.938Z,0.91
2023-02-17T20:06:59.517Z,0.93
2023-02-17T20:09:28.866Z,0.94
2023-02-17T20:11:57.253Z,0.91
2023-02-17T20:14:25.688Z,0.92
2023-02-17T20:16:56.050Z,0.92
2023-02-17T20:19:25.454Z,0.94
2023-02-17T20:21:54.356Z,0.95
2023-02-17T20:24:24.466Z,0.94
2023-02-17T20:26:53.359Z,0.95
2023-02-17T20:29:23.254Z,0.99
2023-02-17T20:31:52.261Z,0.99
2023-02-17T20:34:37.985Z,1.00
2023-02-17T20:37:09.132Z,1.00
2023-02-17T20:39:42.056Z,1.02
2023-02-17T20:42:11.651Z,1.03
2023-02-17T20:44:42.530Z,1.02
2023-02-17T20:47:11.580Z,1.00
2023-02-17T20:49:40.398Z,0.99
2023-02-17T20:52:09.986Z,0.98
2023-02-17T20:54:39.368Z,0.99
2023-02-17T20:57:14.926Z,1.02
2023-02-17T20:59:45.504Z,1.03
2023-02-17T21:02:14.269Z,1.04
2023-02-17T21:04:42.800Z,1.02
2023-02-17T21:07:12.962Z,1.00
2023-02-17T21:09:43.174Z,0.99
2023-02-17T21:12:12.716Z,0.99
2023-02-17T21:14:42.800Z,1.01
2023-02-17T21:17:11.554Z,1.00
2023-02-17T21:19:40.511Z,0.99
2023-02-17T21:22:10.605Z,1.00
2023-02-17T21:24:40.798Z,0.98
2023-02-17T21:27:11.039Z,0.98
2023-02-17T21:29:41.430Z,1.02
2023-02-17T21:32:10.176Z,1.03
2023-02-17T21:34:40.443Z,1.02
2023-02-17T21:37:09.228Z,1.05
2023-02-17T21:39:37.788Z,1.07
2023-02-17T21:42:06.456Z,1.09
2023-02-17T21:44:52.250Z,1.09
2023-02-17T21:47:21.413Z,1.10
2023-02-17T21:49:54.084Z,1.09
2023-02-17T21:52:22.775Z,1.09
2023-02-17T21:54:53.469Z,1.09
2023-02-17T21:57:22.413Z,1.09
2023-02-17T21:59:53.955Z,1.12
2023-02-17T22:02:22.356Z,1.13
2023-02-17T22:04:56.169Z,1.15
2023-02-17T22:07:25.048Z,1.16
2023-02-17T22:09:53.724Z,1.18
2023-02-17T22:12:22.874Z,1.19
2023-02-17T22:14:51.827Z,1.20
2023-02-17T22:17:21.791Z,1.20
2023-02-17T22:19:50.251Z,1.19
2023-02-17T22:22:18.892Z,1.19
2023-02-17T22:24:48.121Z,1.18
2023-02-17T22:27:16.640Z,1.18
2023-02-17T22:29:45.468Z,1.19
2023-02-17T22:32:14.481Z,1.20
2023-02-17T22:34:43.069Z,1.22
2023-02-17T22:37:11.986Z,1.20
2023-02-17T22:39:43.394Z,1.23
2023-02-17T22:42:13.068Z,1.22
2023-02-17T22:44:41.695Z,1.20
2023-02-17T22:47:10.310Z,1.23
2023-02-17T22:49:38.782Z,1.23
2023-02-17T22:52:07.360Z,1.24
2023-02-17T22:54:35.918Z,1.25
2023-02-17T22:57:06.165Z,1.26
2023-02-17T22:59:35.640Z,1.26
2023-02-17T23:02:05.991Z,1.27
2023-02-17T23:04:35.690Z,1.28
2023-02-17T23:07:04.155Z,1.29
2023-02-17T23:09:33.208Z,1.28
2023-02-17T23:12:01.958Z,1.29
2023-02-17T23:14:35.209Z,1.28
2023-02-17T23:17:09.135Z,1.28
2023-02-17T23:19:38.069Z,1.30
2023-02-17T23:22:14.126Z,1.34
2023-02-17T23:24:44.709Z,1.35
2023-02-17T23:27:15.114Z,1.37
2023-02-17T23:29:44.137Z,1.38
2023-02-17T23:32:13.175Z,1.38
2023-02-17T23:34:41.928Z,1.38
2023-02-17T23:37:14.889Z,1.40
2023-02-17T23:39:43.572Z,1.39
2023-02-17T23:42:13.852Z,1.40
2023-02-17T23:44:44.179Z,1.42
2023-02-17T23:47:14.429Z,1.44
2023-02-17T23:49:43.643Z,1.46
2023-02-17T23:52:12.397Z,1.49
2023-02-17T23:54:44.193Z,1.51
2023-02-17T23:57:14.119Z,1.52
2023-02-17T23:59:42.958Z,1.54
